x

West Washington - 300nm West Of Aberdeen, Wa (46005) Wave Buoy

5:50am - Thu 28th Jul 2016 All times are UTC.

  • Sig Wave height 3.0ft
  • Swell Direction
  • Peak Period 8s
  • Average Period 5s
  • Wind
    11mph, 13mph gusts
  • Sea Temp 62°f
  • Air Temp 60°f
  • Sea Pressure 1028mb

More Historic Weather Station data

Upgrade to MSW Pro to gain access to the past 30 days of data for over 8000 Wavebouys and Weather Stations around the globe.

Join Pro

Comparision Forecast

View Surf forecast
   
Thu 07/28 5:50am 3ft 8s 5s 11 13 mph 1028mb 62f 60f
4:50am 3ft 6s 5s 11 13 mph 1027.6mb 62f 61f
3:50am 3ft 7s 5s 11 13 mph 1027.1mb 62f 61f
2:50am 3ft 7s 5s 11 13 mph 1027.2mb 62f 62f
1:50am 3ft 8s 5s 13 16 mph 1027.3mb 63f 62f
12:50am 3ft 14s 5s 11
mph
1027.4mb 63f 62f
Wed 07/27 11:50pm 3ft 8s 5s 11 16 mph 1027.4mb 63f 63f
10:50pm 3ft 8s 5s 11 13 mph 1027.5mb 62f 63f
9:50pm 3ft 15s 5s 13 16 mph 1027.9mb 62f 62f
8:50pm 2.5ft 8s 6s 13 16 mph 1028mb 62f 62f
7:50pm 2.5ft 15s 6s 9 11 mph 1027.9mb 62f 62f
6:50pm 3ft 7s 6s 9 11 mph 1027.7mb 62f 62f
5:50pm 3ft 8s 6s 4 7 mph 1027.4mb 62f 62f
4:50pm 3ft 8s 6s 7 9 mph 1027.2mb 62f 62f
3:50pm 3ft 7s 6s 9
mph
1027.1mb 62f 62f
2:50pm 3ft 15s 6s 9 11 mph 1026.7mb 62f 62f
1:50pm 3.5ft 8s 6s 11 13 mph 1026.6mb 62f 62f
12:50pm 2.5ft 8s 6s 9 11 mph 1026.4mb 62f 62f
11:50am 3ft 8s 6s 7
mph
1026.3mb 62f 62f
10:50am 3ft 8s 6s 9
mph
1026.5mb 62f 62f
9:50am 3.5ft 8s 6s 7
mph
1026.4mb 62f 62f
8:50am 3ft 15s 6s 7 9 mph 1026.7mb 62f 62f
7:50am 3.5ft 8s 6s 7
mph
1027mb 62f 62f
6:50am 3ft 8s 6s 7 9 mph 1026.8mb 62f 62f
5:50am 3.5ft 9s 6s 7 9 mph 1026.8mb 62f 62f
4:50am 3.5ft 8s 6s 7 9 mph 1027.3mb 62f 62f
3:50am 3.5ft 8s 6s 11 13 mph 1026.8mb 62f 62f
2:50am 3.5ft 9s 6s 11 13 mph 1026.5mb 62f 62f
1:50am 3.5ft 8s 6s 13 16 mph 1026.7mb 62f 62f
12:50am 3.5ft 9s 6s 11 13 mph 1027.2mb 62f 62f
Tue 07/26 11:50pm 3.5ft 9s 6s 11 13 mph 1027.4mb 62f 62f
10:50pm 3.5ft 8s 6s 11 16 mph 1027.5mb 62f 62f
9:50pm 4ft 9s 6s 13 16 mph 1027.9mb 62f 62f
8:50pm 4ft 10s 6s 11 13 mph 1027.6mb 62f 62f
7:50pm 3.5ft 9s 6s 11 13 mph 1027.6mb 62f 62f
6:50pm 4ft 9s 6s 11 13 mph 1027.8mb 61f 61f
5:50pm 4.5ft 10s 6s 13 16 mph 1027.2mb 61f 61f
4:50pm 4ft 10s 6s 13 16 mph 1027.2mb 61f 61f
3:50pm 4ft 10s 6s 16 18 mph 1026.8mb 61f 61f
2:50pm 4.5ft 10s 7s 9 11 mph 1026.8mb 61f 62f
1:50pm 4.5ft 9s 7s 9 11 mph 1026.5mb 61f 62f
12:50pm 4.5ft 10s 7s 9 11 mph 1026.2mb 61f 62f
11:50am 4.5ft 10s 7s 9 11 mph 1026.3mb 61f 61f
10:50am 4.5ft 10s 7s 11
mph
1026.4mb 61f 61f
9:50am 4.5ft 10s 7s 13 16 mph 1026.3mb 61f 61f
8:50am 4.5ft 9s 7s 11 13 mph 1026.3mb 61f 61f
7:50am 4.5ft 10s 6s 11 13 mph 1026.3mb 61f 61f
6:50am 5ft 10s 6s 13 18 mph 1026.1mb 61f 61f
5:50am 5ft 9s 7s 13 16 mph 1026.1mb 62f 61f
4:50am 5ft 9s 6s 11 13 mph 1025.6mb 62f 61f
3:50am 5ft 10s 6s 13 16 mph 1025.5mb 62f 61f
2:50am 5ft 10s 6s 13 18 mph 1025.4mb 62f 61f
1:50am 5ft 10s 6s 16 18 mph 1025.2mb 62f 62f
12:50am 5ft 11s 7s 13 16 mph 1025.3mb 62f 62f
Mon 07/25 11:50pm 5.5ft 10s 7s 13 16 mph 1025.3mb 62f 62f
10:50pm 5ft 10s 7s 13 16 mph 1025.3mb 62f 62f
9:50pm 5ft 11s 7s 11 13 mph 1025.2mb 62f 61f
8:50pm 5ft 10s 7s 13 16 mph 1025.3mb 62f 61f
7:50pm 5ft 11s 7s 13 16 mph 1025.4mb 61f 61f
6:50pm 5.5ft 10s 7s 9
mph
1025.4mb 61f 60f
5:50pm 5.5ft 10s 7s 9 11 mph 1025.1mb 61f 61f
4:50pm 5.5ft 9s 7s 11 13 mph 1024.9mb 61f 60f
3:50pm 5.5ft 10s 7s 7 9 mph 1024.5mb 61f 60f
2:50pm 5.5ft 10s 7s 9 11 mph 1024.2mb 61f 60f
1:50pm 5.5ft 11s 7s 11 16 mph 1023.8mb 61f 60f
12:50pm 5.5ft 10s 7s 11 13 mph 1023.6mb 61f 60f
11:50am 5.5ft 10s 7s 13 18 mph 1023.4mb 61f 61f
10:50am 5ft 9s 7s 13 16 mph 1023.2mb 61f 61f
9:50am 5ft 8s 7s 11 13 mph 1023.2mb 61f 62f
8:50am 4.5ft 15s 7s 16 18 mph 1023.4mb 61f 61f
7:50am 4.5ft 9s 6s 9 11 mph 1023.6mb 61f 60f
6:50am 4.5ft 15s 6s 13 16 mph 1023.7mb 61f 61f
5:50am 4.5ft 15s 6s 13 16 mph 1023.7mb 61f 61f
4:50am 4.5ft 15s 6s 13 16 mph 1022.4mb 61f 61f
3:50am 4.5ft 16s 6s 13 16 mph 1022.4mb 62f 61f
2:50am 4.5ft 16s 6s 13 16 mph 1022.2mb 62f 62f
1:50am 4ft 16s 6s 16 20 mph 1022.2mb 62f 62f
12:50am 4.5ft 8s 6s 13 16 mph 1022.5mb 62f 62f
Sun 07/24 11:50pm 4.5ft 8s 6s 13 16 mph 1022.7mb 62f 62f
10:50pm 4.5ft 15s 6s 13 16 mph 1022.9mb 62f 62f
9:50pm 4.5ft 16s 6s 16 18 mph 1022.9mb 62f 62f
8:50pm 4ft 7s 6s 13 18 mph 1023mb 62f 62f
7:50pm 4ft 15s 6s 13 18 mph 1023.1mb 61f 61f
6:50pm 4ft 16s 6s 13 16 mph 1023.2mb 61f 62f
5:50pm 3.5ft 16s 6s 11 13 mph 1023.2mb 61f 62f
4:50pm 4ft 16s 6s 11 13 mph 1023.4mb 61f 62f
3:50pm 4ft 16s 6s 11 13 mph 1023.4mb 62f 61f
2:50pm 4.5ft 16s 6s 11 13 mph 1023.1mb 62f 61f
1:50pm 4.5ft 7s 6s 11 16 mph 1023mb 62f 61f
12:50pm 4.5ft 16s 6s 13 16 mph 1022.8mb 62f 61f
11:50am 4.5ft 16s 6s 13 16 mph 1022.8mb 62f 61f
10:50am 4.5ft 7s 6s 11 13 mph 1023.2mb 62f 61f
9:50am 4.5ft 16s 6s 11 16 mph 1023.6mb 62f 61f
8:50am 4.5ft 16s 6s 13 16 mph 1024mb 62f 61f
7:50am 4.5ft 17s 6s 11 13 mph 1024.4mb 62f 62f
6:50am 4.5ft 16s 6s 11 13 mph 1024.7mb 62f 62f